Time;durP1;ratioP1;P1;durP2;ratioP2;P2;SDS_P1;SDS_P2;PMS_P1;PMS_P2;Temp;Humidity;BMP_temperature;BMP_pressure;BME280_temperature;BME280_humidity;BME280_pressure;Samples;Min_cycle;Max_cycle;Signal;HPM_P1;HPM_P2
2023/11/22 00:00:13;;;;;;;3.97;1.23;;;;;;;0.82;100.00;102031.72;5052832;28;20470;-71
2023/11/22 00:02:39;;;;;;;2.50;0.80;;;;;;;0.81;98.49;102033.56;5053069;28;20431;-71
2023/11/22 00:05:07;;;;;;;3.30;0.97;;;;;;;0.85;98.73;102026.00;5053376;28;20834;-71
2023/11/22 00:07:34;;;;;;;2.37;1.03;;;;;;;0.83;100.00;102028.03;5053222;28;20494;-71
2023/11/22 00:10:01;;;;;;;3.20;0.93;;;;;;;0.83;98.80;102036.84;5053894;28;20513;-71
2023/11/22 00:12:36;;;;;;;2.40;0.80;;;;;;;0.89;98.48;102045.91;5053172;28;20537;-71
2023/11/22 00:15:03;;;;;;;3.03;0.80;;;;;;;0.93;98.73;102052.47;5053175;28;20953;-72
2023/11/22 00:17:29;;;;;;;2.00;0.77;;;;;;;0.94;97.94;102062.97;5053011;28;20476;-71
2023/11/22 00:19:56;;;;;;;2.50;1.23;;;;;;;0.91;98.18;102062.53;5053292;28;20445;-71
2023/11/22 00:22:23;;;;;;;2.93;1.13;;;;;;;0.88;97.76;102065.59;5054956;28;20438;-71
2023/11/22 00:24:50;;;;;;;1.80;0.40;;;;;;;0.99;97.17;102073.03;5056560;28;20458;-71
2023/11/22 00:27:17;;;;;;;1.80;0.50;;;;;;;1.09;96.93;102070.78;5056131;28;20525;-71
2023/11/22 00:29:45;;;;;;;2.47;0.97;;;;;;;1.14;96.59;102076.34;5056475;28;20817;-71
2023/11/22 00:32:12;;;;;;;2.50;0.97;;;;;;;1.09;96.06;102076.13;5056211;28;20452;-71
2023/11/22 00:34:39;;;;;;;3.97;1.63;;;;;;;1.13;95.64;102074.69;5057252;28;20498;-72
2023/11/22 00:37:06;;;;;;;2.40;0.47;;;;;;;1.06;96.34;102086.38;5056716;28;20874;-71
2023/11/22 00:39:32;;;;;;;1.90;0.47;;;;;;;1.10;97.03;102080.44;5056654;28;20448;-71
2023/11/22 00:41:59;;;;;;;1.80;0.40;;;;;;;1.11;96.91;102087.44;5056362;28;20470;-71
2023/11/22 00:44:25;;;;;;;1.80;0.30;;;;;;;1.07;97.84;102088.03;5056480;28;20497;-71
2023/11/22 00:46:53;;;;;;;2.40;1.23;;;;;;;1.16;97.48;102087.66;5055873;28;21016;-71
2023/11/22 00:49:20;;;;;;;2.60;1.10;;;;;;;1.19;98.02;102087.22;5056258;28;20477;-71
2023/11/22 00:51:47;;;;;;;5.93;1.37;;;;;;;1.22;97.87;102107.38;5056129;28;20446;-72
2023/11/22 00:54:15;;;;;;;3.07;0.87;;;;;;;1.25;97.75;102109.63;5055655;28;21060;-71
2023/11/22 00:56:41;;;;;;;5.03;2.20;;;;;;;1.24;97.27;102116.81;5055745;28;20934;-70
2023/11/22 00:59:08;;;;;;;2.60;1.27;;;;;;;1.27;97.77;102104.91;5056035;28;20469;-71
2023/11/22 01:01:35;;;;;;;1.90;0.60;;;;;;;1.29;98.51;102107.41;5055598;28;20844;-71
2023/11/22 01:04:04;;;;;;;1.80;0.50;;;;;;;1.22;98.17;102116.19;5055857;28;20517;-71
2023/11/22 01:06:31;;;;;;;3.20;1.40;;;;;;;1.28;97.71;102122.56;5056071;28;20450;-71
2023/11/22 01:08:58;;;;;;;1.70;0.30;;;;;;;1.21;96.19;102121.72;5055362;28;20532;-71
2023/11/22 01:11:26;;;;;;;2.20;0.80;;;;;;;1.22;96.86;102123.38;5055703;28;20488;-71
2023/11/22 01:13:53;;;;;;;2.57;1.27;;;;;;;1.17;95.86;102115.97;5055937;28;20462;-71
2023/11/22 01:16:19;;;;;;;2.30;1.47;;;;;;;1.13;95.59;102106.72;5055363;28;20872;-71
2023/11/22 01:18:46;;;;;;;3.67;1.77;;;;;;;1.08;96.20;102103.84;5055289;28;20480;-70
2023/11/22 01:21:14;;;;;;;2.03;0.83;;;;;;;0.99;96.42;102107.69;5055629;28;20938;-70
2023/11/22 01:23:41;;;;;;;1.87;0.60;;;;;;;0.94;96.92;102102.16;5055751;28;20906;-70
2023/11/22 01:26:07;;;;;;;1.93;0.70;;;;;;;0.94;96.60;102096.81;5055496;28;20449;-70
2023/11/22 01:28:34;;;;;;;2.73;1.90;;;;;;;0.84;96.58;102093.66;5055414;28;20569;-71
2023/11/22 01:31:02;;;;;;;1.80;0.40;;;;;;;0.80;97.28;102095.09;5055780;28;20442;-70
2023/11/22 01:33:29;;;;;;;2.80;1.67;;;;;;;0.74;98.25;102097.53;5054904;28;20458;-71
2023/11/22 01:35:56;;;;;;;2.37;1.03;;;;;;;0.76;98.44;102097.34;5055589;28;20481;-71
2023/11/22 01:38:24;;;;;;;2.10;1.13;;;;;;;0.79;98.24;102099.59;5055626;28;20537;-70
2023/11/22 01:40:52;;;;;;;2.30;0.77;;;;;;;0.77;98.35;102091.00;5055431;28;20449;-70
2023/11/22 01:43:20;;;;;;;3.70;0.90;;;;;;;0.72;98.43;102101.44;5054678;28;20985;-69
2023/11/22 01:45:47;;;;;;;2.13;0.93;;;;;;;0.71;98.53;102105.13;5055065;28;20873;-69
2023/11/22 01:48:14;;;;;;;2.57;1.17;;;;;;;0.70;97.81;102111.47;5054974;28;21004;-71
2023/11/22 01:50:41;;;;;;;2.97;1.37;;;;;;;0.70;98.06;102106.94;5055016;28;20443;-71
2023/11/22 01:53:08;;;;;;;2.50;0.93;;;;;;;0.71;97.39;102119.28;5054482;28;20892;-71
2023/11/22 01:55:37;;;;;;;2.70;1.53;;;;;;;0.70;98.20;102119.47;5055343;28;20446;-71
2023/11/22 01:58:04;;;;;;;3.03;1.13;;;;;;;0.70;98.99;102130.13;5054894;28;20521;-71
2023/11/22 02:00:36;;;;;;;1.83;0.47;;;;;;;0.69;98.42;102139.16;5055283;28;20466;-71
2023/11/22 02:03:03;;;;;;;2.00;1.00;;;;;;;0.68;99.01;102151.66;5054635;28;20434;-71
2023/11/22 02:05:30;;;;;;;6.63;1.63;;;;;;;0.69;98.63;102145.31;5054685;28;20438;-71
2023/11/22 02:07:58;;;;;;;1.90;0.50;;;;;;;0.61;97.81;102148.13;5054284;28;20568;-71
2023/11/22 02:10:24;;;;;;;1.80;0.47;;;;;;;0.62;98.09;102141.78;5054555;28;20438;-71
2023/11/22 02:12:52;;;;;;;3.33;1.10;;;;;;;0.59;98.67;102144.03;5054337;28;20538;-72
2023/11/22 02:15:19;;;;;;;2.10;0.87;;;;;;;0.61;98.10;102133.97;5054991;28;20545;-71
2023/11/22 02:17:46;;;;;;;2.00;0.80;;;;;;;0.54;98.58;102135.78;5054409;28;20434;-72
2023/11/22 02:20:13;;;;;;;4.67;2.77;;;;;;;0.50;98.59;102144.19;5054726;28;20465;-72
2023/11/22 02:22:46;;;;;;;2.37;0.90;;;;;;;0.50;99.02;102143.34;5054989;28;20442;-71
2023/11/22 02:25:15;;;;;;;3.70;1.47;;;;;;;0.55;99.24;102148.09;5054225;28;20458;-71
2023/11/22 02:27:42;;;;;;;4.93;2.07;;;;;;;0.57;97.90;102146.88;5054175;28;20486;-71
2023/11/22 02:30:11;;;;;;;3.43;0.93;;;;;;;0.51;97.71;102150.31;5054165;28;20438;-71
2023/11/22 02:32:39;;;;;;;2.20;0.83;;;;;;;0.44;97.77;102162.78;5054152;28;20536;-71
2023/11/22 02:35:07;;;;;;;1.90;0.50;;;;;;;0.42;98.17;102170.97;5053807;28;20454;-71
2023/11/22 02:37:34;;;;;;;1.77;0.30;;;;;;;0.43;97.46;102177.13;5054031;28;20812;-71
2023/11/22 02:40:06;;;;;;;2.23;1.13;;;;;;;0.37;98.33;102177.91;5054125;28;20439;-71
2023/11/22 02:42:35;;;;;;;2.67;1.40;;;;;;;0.40;98.20;102180.16;5054282;28;20450;-71
2023/11/22 02:45:02;;;;;;;2.20;0.60;;;;;;;0.30;97.45;102185.03;5053234;28;20512;-71
2023/11/22 02:47:30;;;;;;;2.63;1.17;;;;;;;0.31;98.41;102192.00;5053772;28;20478;-71
2023/11/22 02:49:56;;;;;;;1.80;0.40;;;;;;;0.32;98.33;102194.47;5054091;28;20447;-71
2023/11/22 02:52:26;;;;;;;9.10;1.13;;;;;;;0.34;97.58;102194.28;5053968;28;20446;-71
2023/11/22 02:54:53;;;;;;;1.90;0.60;;;;;;;0.36;97.13;102208.25;5054400;28;20458;-72
2023/11/22 02:57:19;;;;;;;3.87;1.43;;;;;;;0.34;98.36;102210.28;5053956;28;20869;-72
2023/11/22 02:59:47;;;;;;;2.57;0.67;;;;;;;0.36;98.20;102217.06;5053975;28;20442;-71
2023/11/22 03:02:16;;;;;;;5.13;1.47;;;;;;;0.31;99.36;102226.63;5053656;28;20530;-72
2023/11/22 03:04:43;;;;;;;2.87;1.47;;;;;;;0.25;99.93;102231.72;5053614;28;20541;-71
2023/11/22 03:07:10;;;;;;;2.40;0.73;;;;;;;0.18;100.00;102230.03;5053083;28;20438;-71
2023/11/22 03:09:37;;;;;;;1.80;0.40;;;;;;;0.21;100.00;102234.97;5053673;28;20455;-71
2023/11/22 03:12:04;;;;;;;2.00;0.90;;;;;;;0.23;100.00;102233.75;5053995;28;20530;-72
2023/11/22 03:14:31;;;;;;;1.80;0.40;;;;;;;0.19;100.00;102243.16;5053729;28;20889;-71
2023/11/22 03:16:59;;;;;;;3.70;1.77;;;;;;;0.11;100.00;102248.59;5053490;28;20529;-71
2023/11/22 03:19:25;;;;;;;3.23;1.07;;;;;;;0.04;100.00;102253.03;5053244;28;20500;-70
2023/11/22 03:21:52;;;;;;;1.80;0.50;;;;;;;0.06;100.00;102251.03;5053866;28;20438;-70
2023/11/22 03:24:18;;;;;;;1.97;0.63;;;;;;;0.06;100.00;102245.69;5053306;28;21023;-71
2023/11/22 03:26:45;;;;;;;2.30;0.70;;;;;;;-0.02;100.00;102245.81;5053127;28;20470;-70
2023/11/22 03:29:12;;;;;;;1.80;0.40;;;;;;;-0.03;100.00;102246.84;5053443;28;21014;-71
2023/11/22 03:31:39;;;;;;;4.10;1.00;;;;;;;-0.01;100.00;102247.44;5053305;28;20525;-70
2023/11/22 03:34:07;;;;;;;1.90;0.50;;;;;;;-0.03;100.00;102244.16;5053379;28;20860;-71
2023/11/22 03:36:34;;;;;;;2.20;0.60;;;;;;;-0.04;100.00;102246.00;5052989;28;20874;-70
2023/11/22 03:39:00;;;;;;;3.57;2.50;;;;;;;-0.06;100.00;102247.19;5053672;28;20944;-70
2023/11/22 03:41:27;;;;;;;1.80;0.40;;;;;;;0.00;100.00;102246.47;5053199;28;21021;-70
2023/11/22 03:43:53;;;;;;;2.77;0.80;;;;;;;-0.07;100.00;102241.06;5053535;28;20549;-70
2023/11/22 03:46:20;;;;;;;4.50;1.47;;;;;;;-0.09;100.00;102240.44;5053207;28;20525;-69
2023/11/22 03:48:47;;;;;;;2.10;0.60;;;;;;;-0.07;100.00;102237.56;5054282;28;20573;-71
2023/11/22 03:51:15;;;;;;;1.80;0.43;;;;;;;-0.04;100.00;102245.19;5053072;28;20521;-69
2023/11/22 03:53:42;;;;;;;5.00;0.57;;;;;;;-0.11;100.00;102244.28;5052773;28;20462;-69
2023/11/22 03:56:09;;;;;;;2.67;0.97;;;;;;;-0.22;100.00;102250.09;5055314;28;20438;-69
2023/11/22 03:58:36;;;;;;;2.10;1.10;;;;;;;-0.21;100.00;102259.75;5057100;28;20521;-69
2023/11/22 04:01:03;;;;;;;2.17;1.10;;;;;;;-0.22;99.87;102271.38;5057105;28;20438;-69
2023/11/22 04:03:29;;;;;;;3.27;1.43;;;;;;;-0.20;99.98;102282.69;5056601;28;20883;-69
2023/11/22 04:05:56;;;;;;;1.80;0.40;;;;;;;-0.27;98.21;102278.13;5056573;28;20988;-69
2023/11/22 04:08:25;;;;;;;2.10;0.97;;;;;;;-0.31;98.55;102290.16;5056724;28;20493;-69
2023/11/22 04:10:52;;;;;;;2.57;0.80;;;;;;;-0.23;98.12;102283.06;5056835;28;20438;-69
2023/11/22 04:13:18;;;;;;;2.40;0.70;;;;;;;-0.19;98.13;102269.19;5056741;28;20524;-70
2023/11/22 04:15:45;;;;;;;1.80;0.40;;;;;;;-0.22;98.37;102268.72;5057212;28;20465;-72
2023/11/22 04:18:11;;;;;;;2.23;0.93;;;;;;;-0.19;98.44;102268.34;5056484;28;20442;-70
2023/11/22 04:20:38;;;;;;;1.90;0.70;;;;;;;-0.23;98.48;102267.09;5056934;28;20992;-70
2023/11/22 04:23:05;;;;;;;1.80;0.40;;;;;;;-0.29;100.00;102269.50;5056596;28;20521;-70
2023/11/22 04:25:34;;;;;;;3.23;0.70;;;;;;;-0.35;100.00;102286.22;5056703;28;20507;-70
2023/11/22 04:28:00;;;;;;;3.03;1.10;;;;;;;-0.27;100.00;102283.44;5056612;28;20493;-70
2023/11/22 04:30:27;;;;;;;7.57;2.67;;;;;;;-0.24;99.58;102298.22;5056478;28;20444;-70
2023/11/22 04:32:54;;;;;;;2.50;0.87;;;;;;;-0.32;99.22;102309.78;5056142;28;21001;-70
2023/11/22 04:35:21;;;;;;;1.80;0.37;;;;;;;-0.37;99.65;102312.19;5056258;28;20466;-70
2023/11/22 04:37:48;;;;;;;1.90;0.60;;;;;;;-0.34;100.00;102313.66;5056104;28;20477;-70
2023/11/22 04:40:15;;;;;;;2.17;1.10;;;;;;;-0.35;100.00;102314.69;5056390;28;20442;-70
2023/11/22 04:42:43;;;;;;;2.00;0.93;;;;;;;-0.40;100.00;102319.72;5056263;28;20441;-70
2023/11/22 04:45:10;;;;;;;4.63;1.67;;;;;;;-0.41;100.00;102326.88;5055897;28;20523;-70
2023/11/22 04:47:37;;;;;;;2.73;0.80;;;;;;;-0.41;100.00;102334.03;5056549;28;20488;-70
2023/11/22 04:50:04;;;;;;;2.00;0.80;;;;;;;-0.41;100.00;102331.38;5055994;28;20881;-70
2023/11/22 04:52:31;;;;;;;1.70;0.30;;;;;;;-0.42;100.00;102327.88;5056061;28;20451;-70
2023/11/22 04:54:58;;;;;;;3.67;1.10;;;;;;;-0.40;100.00;102336.53;5055954;28;20469;-70
2023/11/22 04:57:24;;;;;;;1.90;0.50;;;;;;;-0.40;100.00;102341.84;5056073;28;20434;-70
2023/11/22 04:59:53;;;;;;;1.80;0.40;;;;;;;-0.39;100.00;102340.84;5055678;28;20503;-70
2023/11/22 05:02:20;;;;;;;1.83;0.50;;;;;;;-0.45;100.00;102341.56;5056229;28;20525;-70
2023/11/22 05:04:48;;;;;;;2.30;0.77;;;;;;;-0.49;100.00;102345.59;5055607;28;21041;-71
2023/11/22 05:07:15;;;;;;;2.83;0.57;;;;;;;-0.56;100.00;102353.50;5054993;28;20465;-71
2023/11/22 05:09:43;;;;;;;4.37;1.03;;;;;;;-0.58;100.00;102354.69;5055948;28;20473;-70
2023/11/22 05:12:10;;;;;;;2.30;1.40;;;;;;;-0.62;100.00;102362.22;5055985;28;20486;-71
2023/11/22 05:14:36;;;;;;;2.33;0.97;;;;;;;-0.64;100.00;102358.09;5055684;28;20550;-70
2023/11/22 05:17:05;;;;;;;2.00;0.60;;;;;;;-0.68;100.00;102360.28;5055560;28;20949;-71
2023/11/22 05:19:32;;;;;;;1.80;0.50;;;;;;;-0.77;100.00;102354.22;5056092;28;20477;-71
2023/11/22 05:21:59;;;;;;;1.87;0.40;;;;;;;-0.80;100.00;102357.25;5056126;28;20434;-71
2023/11/22 05:24:25;;;;;;;2.23;0.80;;;;;;;-0.82;100.00;102353.13;5055883;28;20557;-72
2023/11/22 05:26:52;;;;;;;2.00;0.60;;;;;;;-0.84;100.00;102363.94;5055844;28;20533;-71
2023/11/22 05:29:18;;;;;;;3.60;1.13;;;;;;;-0.84;100.00;102382.56;5055603;28;20489;-71
2023/11/22 05:31:45;;;;;;;2.20;1.00;;;;;;;-0.84;100.00;102395.88;5055346;28;21025;-71
2023/11/22 05:34:14;;;;;;;1.70;0.30;;;;;;;-0.88;100.00;102391.91;5055484;28;20879;-71
2023/11/22 05:36:41;;;;;;;1.80;0.40;;;;;;;-0.96;99.71;102410.59;5055245;28;20442;-71
2023/11/22 05:39:08;;;;;;;4.10;1.57;;;;;;;-1.07;100.00;102414.50;5055133;28;20434;-71
2023/11/22 05:41:35;;;;;;;1.73;0.30;;;;;;;-1.00;100.00;102403.97;5054874;28;20972;-70
2023/11/22 05:44:02;;;;;;;2.00;0.77;;;;;;;-0.99;100.00;102402.16;5055001;28;20969;-71
2023/11/22 05:46:29;;;;;;;1.90;0.50;;;;;;;-0.97;100.00;102416.06;5055430;28;20524;-70
2023/11/22 05:48:56;;;;;;;1.80;0.40;;;;;;;-1.05;100.00;102401.03;5054933;28;20482;-70
2023/11/22 05:51:24;;;;;;;1.80;0.30;;;;;;;-1.04;100.00;102402.69;5054969;28;20952;-70
2023/11/22 05:53:50;;;;;;;2.03;0.67;;;;;;;-1.00;100.00;102388.03;5054560;28;20519;-70
2023/11/22 05:56:18;;;;;;;1.93;0.60;;;;;;;-1.07;100.00;102387.06;5055169;28;20438;-70
2023/11/22 05:58:45;;;;;;;2.37;1.07;;;;;;;-1.17;100.00;102386.50;5055082;28;20919;-68
2023/11/22 06:01:12;;;;;;;2.00;0.60;;;;;;;-1.14;100.00;102391.47;5055000;28;20502;-69
2023/11/22 06:03:39;;;;;;;5.80;1.67;;;;;;;-1.15;100.00;102390.66;5054786;28;20557;-68
2023/11/22 06:06:06;;;;;;;2.03;0.50;;;;;;;-1.14;100.00;102392.28;5054485;28;20931;-69
2023/11/22 06:08:35;;;;;;;1.80;0.30;;;;;;;-1.19;100.00;102399.97;5054718;28;20996;-68
2023/11/22 06:11:03;;;;;;;1.80;0.40;;;;;;;-1.21;100.00;102401.97;5055039;28;20454;-67
2023/11/22 06:13:30;;;;;;;1.70;0.30;;;;;;;-1.15;100.00;102411.06;5055529;28;20462;-67
2023/11/22 06:15:56;;;;;;;2.20;0.83;;;;;;;-1.13;100.00;102412.56;5055205;28;20447;-68
2023/11/22 06:18:29;;;;;;;3.60;2.23;;;;;;;-1.17;100.00;102421.88;5055171;28;20481;-68
2023/11/22 06:20:56;;;;;;;1.90;0.63;;;;;;;-1.33;100.00;102422.84;5054972;28;20506;-68
2023/11/22 06:23:22;;;;;;;2.13;0.93;;;;;;;-1.36;100.00;102425.03;5055055;28;20516;-67
2023/11/22 06:25:51;;;;;;;2.17;0.60;;;;;;;-1.29;100.00;102421.47;5055156;28;20438;-68
2023/11/22 06:28:18;;;;;;;5.83;2.00;;;;;;;-1.32;100.00;102429.00;5054513;28;21072;-68
2023/11/22 06:30:44;;;;;;;2.43;1.60;;;;;;;-1.39;100.00;102420.88;5054798;28;20445;-68
2023/11/22 06:33:11;;;;;;;2.03;0.63;;;;;;;-1.38;100.00;102419.03;5055029;28;20474;-68
2023/11/22 06:35:38;;;;;;;1.80;0.40;;;;;;;-1.44;100.00;102417.94;5054621;28;20503;-68
2023/11/22 06:38:04;;;;;;;2.10;0.80;;;;;;;-1.44;99.98;102433.03;5054082;28;20865;-67
2023/11/22 06:40:31;;;;;;;2.30;1.00;;;;;;;-1.47;99.43;102444.00;5054246;28;20538;-67
2023/11/22 06:42:59;;;;;;;3.40;0.73;;;;;;;-1.61;98.77;102454.38;5054757;28;20854;-68
2023/11/22 06:45:25;;;;;;;1.70;0.30;;;;;;;-1.60;99.82;102460.53;5054415;28;20497;-68
2023/11/22 06:47:52;;;;;;;2.30;1.33;;;;;;;-1.58;99.43;102463.84;5054295;28;20873;-69
2023/11/22 06:50:20;;;;;;;2.47;1.37;;;;;;;-1.56;100.00;102477.78;5054423;28;20489;-69
2023/11/22 06:52:49;;;;;;;2.23;1.00;;;;;;;-1.55;100.00;102476.75;5053848;28;20442;-69
2023/11/22 06:55:16;;;;;;;2.27;0.87;;;;;;;-1.56;100.00;102485.75;5054207;28;20992;-68
2023/11/22 06:57:44;;;;;;;2.00;0.80;;;;;;;-1.61;100.00;102490.75;5054476;28;20447;-69
2023/11/22 07:00:13;;;;;;;4.00;1.23;;;;;;;-1.60;100.00;102495.88;5053853;28;20846;-68
2023/11/22 07:02:40;;;;;;;1.80;0.40;;;;;;;-1.55;100.00;102490.03;5053946;28;20500;-70
2023/11/22 07:05:08;;;;;;;1.80;0.40;;;;;;;-1.55;100.00;102495.34;5053581;28;20526;-68
2023/11/22 07:07:35;;;;;;;2.67;1.20;;;;;;;-1.59;100.00;102504.72;5053391;28;20942;-69
2023/11/22 07:10:02;;;;;;;2.00;0.70;;;;;;;-1.65;100.00;102492.91;5053711;28;20501;-70
2023/11/22 07:12:29;;;;;;;1.90;0.50;;;;;;;-1.60;100.00;102508.34;5054533;28;20430;-68
2023/11/22 07:14:56;;;;;;;2.63;0.93;;;;;;;-1.59;100.00;102499.41;5053851;28;20572;-70
2023/11/22 07:17:27;;;;;;;2.30;1.07;;;;;;;-1.58;100.00;102504.53;5054056;28;20446;-70
2023/11/22 07:19:54;;;;;;;3.40;2.00;;;;;;;-1.60;100.00;102503.84;5053361;28;20926;-70
2023/11/22 07:22:22;;;;;;;2.40;0.77;;;;;;;-1.64;99.77;102510.53;5053745;28;20511;-69
2023/11/22 07:24:51;;;;;;;1.97;0.73;;;;;;;-1.62;98.88;102510.34;5053855;28;20458;-71
2023/11/22 07:27:18;;;;;;;1.77;0.30;;;;;;;-1.65;98.73;102502.72;5053494;28;20440;-69
2023/11/22 07:29:45;;;;;;;1.93;0.70;;;;;;;-1.63;99.50;102512.19;5054058;28;20543;-70
2023/11/22 07:32:12;;;;;;;2.43;1.07;;;;;;;-1.53;99.95;102520.78;5059477;28;20964;-69
2023/11/22 07:34:41;;;;;;;1.73;0.30;;;;;;;-1.50;100.00;102524.09;5060172;28;20484;-69
2023/11/22 07:37:09;;;;;;;2.37;1.23;;;;;;;-1.38;100.00;102515.53;5060381;28;20529;-69
2023/11/22 07:39:36;;;;;;;1.90;0.70;;;;;;;-1.34;100.00;102529.31;5060190;28;20434;-69
2023/11/22 07:42:03;;;;;;;1.90;0.77;;;;;;;-1.27;100.00;102517.00;5060053;28;20438;-69
2023/11/22 07:44:32;;;;;;;1.90;0.73;;;;;;;-1.22;100.00;102511.97;5060054;28;20488;-69
2023/11/22 07:46:59;;;;;;;4.17;2.73;;;;;;;-1.14;100.00;102511.13;5060104;28;20485;-68
2023/11/22 07:49:26;;;;;;;3.13;0.80;;;;;;;-1.10;100.00;102510.59;5059906;28;20517;-68
2023/11/22 07:51:54;;;;;;;2.00;0.83;;;;;;;-1.05;100.00;102502.06;5059775;28;20441;-68
2023/11/22 07:54:22;;;;;;;2.63;0.93;;;;;;;-0.93;100.00;102495.34;5059585;28;20462;-68
2023/11/22 07:56:49;;;;;;;1.93;0.70;;;;;;;-0.83;100.00;102495.94;5059858;28;20485;-69
2023/11/22 07:59:15;;;;;;;1.77;0.40;;;;;;;-0.84;100.00;102485.44;5059948;28;20536;-68
2023/11/22 08:01:44;;;;;;;2.47;1.37;;;;;;;-0.86;100.00;102482.97;5060143;28;20434;-68
2023/11/22 08:04:11;;;;;;;6.60;0.60;;;;;;;-0.83;100.00;102474.66;5059848;28;20537;-68
2023/11/22 08:06:38;;;;;;;3.80;1.73;;;;;;;-0.71;100.00;102477.69;5060115;28;20948;-68
2023/11/22 08:09:09;;;;;;;1.90;0.60;;;;;;;-0.72;100.00;102476.06;5059962;28;20535;-68
2023/11/22 08:11:35;;;;;;;1.77;0.40;;;;;;;-0.62;100.00;102481.13;5060564;28;20426;-69
2023/11/22 08:14:02;;;;;;;2.53;1.30;;;;;;;-0.46;99.88;102486.31;5060030;28;20494;-68
2023/11/22 08:16:29;;;;;;;6.77;1.80;;;;;;;-0.49;99.59;102476.00;5060082;28;20528;-68
2023/11/22 08:18:56;;;;;;;2.73;1.27;;;;;;;-0.46;99.83;102467.66;5059944;28;20533;-68
2023/11/22 08:21:23;;;;;;;2.20;1.10;;;;;;;-0.49;100.00;102465.34;5059825;28;20430;-68
2023/11/22 08:23:50;;;;;;;1.80;0.50;;;;;;;-0.45;100.00;102469.31;5059782;28;20545;-68
2023/11/22 08:26:18;;;;;;;2.83;1.63;;;;;;;-0.38;100.00;102478.25;5059785;28;20433;-68
2023/11/22 08:28:45;;;;;;;2.00;0.80;;;;;;;-0.26;100.00;102506.09;5059563;28;20434;-67
2023/11/22 08:31:11;;;;;;;1.90;0.60;;;;;;;-0.18;100.00;102496.34;5059480;28;21008;-69
2023/11/22 08:33:39;;;;;;;3.00;1.13;;;;;;;-0.20;100.00;102503.69;5059635;28;20486;-68
2023/11/22 08:36:06;;;;;;;2.87;1.83;;;;;;;-0.15;100.00;102509.31;5059323;28;20453;-69
2023/11/22 08:38:33;;;;;;;3.80;1.80;;;;;;;-0.12;100.00;102503.63;5059518;28;20446;-68
2023/11/22 08:41:02;;;;;;;3.40;0.90;;;;;;;-0.04;100.00;102500.88;5059511;28;20442;-68
2023/11/22 08:43:31;;;;;;;3.27;2.40;;;;;;;0.09;100.00;102503.72;5055269;28;20466;-67
2023/11/22 08:45:58;;;;;;;2.93;1.20;;;;;;;0.10;100.00;102515.22;5056336;28;20802;-68
2023/11/22 08:48:25;;;;;;;2.67;0.57;;;;;;;0.15;100.00;102524.28;5055875;28;21009;-68
2023/11/22 08:50:53;;;;;;;2.03;0.53;;;;;;;0.17;100.00;102524.09;5056107;28;20539;-69
2023/11/22 08:53:20;;;;;;;9.33;0.70;;;;;;;0.23;100.00;102521.53;5056042;28;20512;-69
2023/11/22 08:55:47;;;;;;;3.50;1.80;;;;;;;0.35;100.00;102526.38;5056013;28;20438;-69
2023/11/22 08:58:13;;;;;;;3.00;2.17;;;;;;;0.38;100.00;102526.84;5056255;28;20517;-69
2023/11/22 09:00:42;;;;;;;2.10;0.93;;;;;;;0.44;99.77;102546.59;5055953;28;20470;-69
2023/11/22 09:03:10;;;;;;;2.10;0.90;;;;;;;0.47;99.16;102532.91;5055535;28;20444;-69
2023/11/22 09:05:37;;;;;;;3.10;1.43;;;;;;;0.47;98.92;102527.59;5055907;28;20455;-69
2023/11/22 09:08:04;;;;;;;2.10;0.93;;;;;;;0.52;98.22;102535.84;5055572;28;20450;-69
2023/11/22 09:10:31;;;;;;;2.90;1.23;;;;;;;0.57;96.98;102533.44;5055386;28;20478;-69
2023/11/22 09:12:59;;;;;;;4.00;3.17;;;;;;;0.59;96.92;102515.44;5055779;28;20525;-69
2023/11/22 09:15:29;;;;;;;2.17;0.93;;;;;;;0.65;95.66;102511.19;5055647;28;20450;-70
2023/11/22 09:17:57;;;;;;;1.90;0.50;;;;;;;0.72;94.81;102504.91;5056769;28;20443;-69
2023/11/22 09:20:24;;;;;;;1.80;0.40;;;;;;;0.78;95.16;102494.50;5055740;28;20488;-69
2023/11/22 09:22:53;;;;;;;4.33;1.33;;;;;;;0.88;95.26;102492.34;5055771;28;20474;-69
2023/11/22 09:25:22;;;;;;;4.17;1.60;;;;;;;0.90;94.43;102479.66;5055342;28;20485;-69
2023/11/22 09:27:51;;;;;;;6.20;3.10;;;;;;;0.93;93.14;102488.13;5056016;28;20496;-69
2023/11/22 09:30:32;;;;;;;1.90;0.63;;;;;;;0.98;92.49;102485.72;5055714;28;20482;-70
2023/11/22 09:33:00;;;;;;;1.90;0.50;;;;;;;0.96;90.60;102476.22;5055971;28;20429;-70
2023/11/22 09:35:29;;;;;;;1.90;0.50;;;;;;;0.98;89.12;102471.56;5055831;28;20461;-70
2023/11/22 09:37:55;;;;;;;2.50;0.30;;;;;;;1.06;88.93;102474.06;5055702;28;20443;-69
2023/11/22 09:40:23;;;;;;;1.80;0.40;;;;;;;1.11;88.54;102477.00;5055108;28;20534;-69
2023/11/22 09:42:52;;;;;;;2.33;1.40;;;;;;;1.16;88.83;102473.78;5055326;28;20442;-69
2023/11/22 09:45:20;;;;;;;3.23;1.00;;;;;;;1.25;87.75;102477.94;5055385;28;20497;-69
2023/11/22 09:47:47;;;;;;;2.10;0.80;;;;;;;1.33;87.41;102474.31;5055309;28;20504;-69
2023/11/22 09:50:20;;;;;;;3.00;1.80;;;;;;;1.40;87.28;102477.88;5054864;28;20485;-69
2023/11/22 09:52:51;;;;;;;3.03;1.30;;;;;;;1.40;84.19;102483.19;5055342;28;20454;-70
2023/11/22 09:55:19;;;;;;;2.77;1.93;;;;;;;1.51;83.73;102480.03;5054896;28;20458;-69
2023/11/22 09:57:47;;;;;;;1.80;0.50;;;;;;;1.61;83.58;102493.03;5054581;28;20477;-69
2023/11/22 10:00:16;;;;;;;2.97;1.67;;;;;;;1.74;83.11;102496.63;5055417;28;20434;-70
2023/11/22 10:02:43;;;;;;;4.80;1.40;;;;;;;1.86;82.65;102504.06;5055001;28;20491;-70
2023/11/22 10:05:11;;;;;;;3.10;1.40;;;;;;;1.94;81.44;102514.63;5054651;28;20545;-69
2023/11/22 10:07:39;;;;;;;1.90;0.60;;;;;;;2.03;80.94;102508.09;5054339;28;20462;-70
2023/11/22 10:10:10;;;;;;;4.70;0.90;;;;;;;2.10;78.95;102517.00;5054569;28;20498;-70
2023/11/22 10:12:39;;;;;;;2.40;1.30;;;;;;;2.17;78.13;102512.53;5054749;28;20431;-69
2023/11/22 10:15:14;;;;;;;3.27;0.60;;;;;;;2.19;78.85;102518.47;5054858;28;20465;-69
2023/11/22 10:17:41;;;;;;;1.90;0.50;;;;;;;2.27;78.15;102517.50;5054775;28;20524;-70
2023/11/22 10:20:11;;;;;;;3.03;1.00;;;;;;;2.37;78.44;102511.78;5054219;28;20431;-70
2023/11/22 10:22:48;;;;;;;4.17;0.80;;;;;;;2.45;77.31;102522.31;5054592;28;20437;-71
2023/11/22 10:25:18;;;;;;;2.10;0.80;;;;;;;2.41;75.45;102526.41;5054335;28;20464;-73
2023/11/22 10:27:45;;;;;;;2.17;0.90;;;;;;;2.46;76.95;102534.66;5054421;28;20446;-70
2023/11/22 10:30:14;;;;;;;4.23;1.13;;;;;;;2.49;77.32;102531.59;5054030;28;20557;-70
2023/11/22 10:32:42;;;;;;;16.40;2.10;;;;;;;2.47;76.45;102537.13;5054678;28;20441;-70
2023/11/22 10:35:09;;;;;;;1.77;0.40;;;;;;;2.56;75.66;102532.44;5054628;28;21046;-70
2023/11/22 10:37:36;;;;;;;4.73;1.50;;;;;;;2.62;75.62;102518.28;5054164;28;20443;-70
2023/11/22 10:40:06;;;;;;;3.37;0.70;;;;;;;2.68;76.60;102519.31;5054472;28;20430;-71
2023/11/22 10:42:34;;;;;;;5.60;1.73;;;;;;;2.72;74.84;102515.22;5054483;28;20438;-70
2023/11/22 10:45:03;;;;;;;4.33;2.17;;;;;;;2.79;75.11;102521.44;5054115;28;20812;-70
2023/11/22 10:47:31;;;;;;;2.97;1.30;;;;;;;2.82;73.01;102522.84;5054053;28;20446;-71
2023/11/22 10:50:01;;;;;;;2.70;1.47;;;;;;;2.82;71.30;102531.72;5053683;28;20478;-70
2023/11/22 10:52:28;;;;;;;2.67;0.90;;;;;;;2.95;72.42;102534.44;5054431;28;20441;-70
2023/11/22 10:55:05;;;;;;;2.57;0.93;;;;;;;3.11;72.59;102541.28;5053820;28;20505;-70
2023/11/22 10:57:41;;;;;;;2.90;1.43;;;;;;;3.17;70.83;102540.44;5053980;28;20517;-70
2023/11/22 11:00:12;;;;;;;4.03;1.03;;;;;;;3.28;70.79;102531.00;5053997;28;20425;-70
2023/11/22 11:02:46;;;;;;;1.90;0.50;;;;;;;3.27;71.45;102530.16;5053768;28;20427;-70
2023/11/22 11:05:17;;;;;;;3.83;1.40;;;;;;;3.29;71.04;102528.13;5052955;28;20449;-70
2023/11/22 11:07:51;;;;;;;4.33;1.33;;;;;;;3.44;71.37;102529.78;5053300;28;20956;-70
2023/11/22 11:10:21;;;;;;;2.63;1.27;;;;;;;3.58;71.46;102520.69;5053698;28;20466;-70
2023/11/22 11:12:49;;;;;;;3.80;1.60;;;;;;;3.70;70.36;102508.34;5053635;28;20435;-70
2023/11/22 11:15:18;;;;;;;3.93;1.57;;;;;;;3.79;69.93;102496.38;5053173;28;21015;-70
2023/11/22 11:17:47;;;;;;;4.00;1.77;;;;;;;4.00;68.93;102508.72;5053210;28;20525;-70
2023/11/22 11:20:17;;;;;;;3.27;1.37;;;;;;;4.19;68.18;102514.22;5053904;28;20505;-70
2023/11/22 11:22:45;;;;;;;2.80;1.20;;;;;;;4.47;66.15;102498.69;5053205;28;20445;-70
2023/11/22 11:25:15;;;;;;;2.40;0.87;;;;;;;4.96;64.41;102501.72;5053390;28;20457;-70
2023/11/22 11:27:42;;;;;;;2.40;1.33;;;;;;;5.73;63.62;102499.69;5053656;28;20462;-70